sensor_id;sensor_type;location;lat;lon;timestamp;temperature;humidity
21261;DHT22;10788;47.930;9.766;2022-12-07T00:00:02;2.70;99.90
21261;DHT22;10788;47.930;9.766;2022-12-07T00:02:27;2.60;99.90
21261;DHT22;10788;47.930;9.766;2022-12-07T00:04:53;2.60;99.90
21261;DHT22;10788;47.930;9.766;2022-12-07T00:07:19;2.60;99.90
21261;DHT22;10788;47.930;9.766;2022-12-07T00:09:44;2.60;99.90
21261;DHT22;10788;47.930;9.766;2022-12-07T00:12:10;2.60;99.90
21261;DHT22;10788;47.930;9.766;2022-12-07T00:14:35;2.60;99.90
21261;DHT22;10788;47.930;9.766;2022-12-07T00:17:01;2.60;99.90
21261;DHT22;10788;47.930;9.766;2022-12-07T00:19:26;2.50;99.90
21261;DHT22;10788;47.930;9.766;2022-12-07T00:21:52;2.50;99.90
21261;DHT22;10788;47.930;9.766;2022-12-07T00:24:18;2.50;99.90
21261;DHT22;10788;47.930;9.766;2022-12-07T00:26:43;2.50;99.90
21261;DHT22;10788;47.930;9.766;2022-12-07T00:29:18;2.50;99.90
21261;DHT22;10788;47.930;9.766;2022-12-07T00:31:44;2.50;99.90
21261;DHT22;10788;47.930;9.766;2022-12-07T00:34:20;2.50;99.90
21261;DHT22;10788;47.930;9.766;2022-12-07T00:36:46;2.50;99.90
21261;DHT22;10788;47.930;9.766;2022-12-07T00:39:13;2.50;99.90
21261;DHT22;10788;47.930;9.766;2022-12-07T00:41:39;2.50;99.90
21261;DHT22;10788;47.930;9.766;2022-12-07T00:44:04;2.40;99.90
21261;DHT22;10788;47.930;9.766;2022-12-07T00:46:30;2.40;99.90
21261;DHT22;10788;47.930;9.766;2022-12-07T00:48:56;2.40;99.90
21261;DHT22;10788;47.930;9.766;2022-12-07T00:51:24;2.40;99.90
21261;DHT22;10788;47.930;9.766;2022-12-07T00:53:50;2.40;99.90
21261;DHT22;10788;47.930;9.766;2022-12-07T00:56:18;2.40;99.90
21261;DHT22;10788;47.930;9.766;2022-12-07T00:58:50;2.30;99.90
21261;DHT22;10788;47.930;9.766;2022-12-07T01:01:15;2.30;99.90
21261;DHT22;10788;47.930;9.766;2022-12-07T01:03:41;2.30;99.90
21261;DHT22;10788;47.930;9.766;2022-12-07T01:06:06;2.30;99.90
21261;DHT22;10788;47.930;9.766;2022-12-07T01:08:33;2.30;99.90
21261;DHT22;10788;47.930;9.766;2022-12-07T01:11:09;2.20;99.90
21261;DHT22;10788;47.930;9.766;2022-12-07T01:13:36;2.20;99.90
21261;DHT22;10788;47.930;9.766;2022-12-07T01:16:04;2.30;99.90
21261;DHT22;10788;47.930;9.766;2022-12-07T01:18:32;2.30;99.90
21261;DHT22;10788;47.930;9.766;2022-12-07T01:21:19;2.20;99.90
21261;DHT22;10788;47.930;9.766;2022-12-07T01:23:46;2.20;99.90
21261;DHT22;10788;47.930;9.766;2022-12-07T01:26:15;2.30;99.90
21261;DHT22;10788;47.930;9.766;2022-12-07T01:28:41;2.30;99.90
21261;DHT22;10788;47.930;9.766;2022-12-07T01:31:09;2.20;99.90
21261;DHT22;10788;47.930;9.766;2022-12-07T01:33:37;2.20;99.90
21261;DHT22;10788;47.930;9.766;2022-12-07T01:36:08;2.20;99.90
21261;DHT22;10788;47.930;9.766;2022-12-07T01:38:38;2.20;99.90
21261;DHT22;10788;47.930;9.766;2022-12-07T01:41:03;2.20;99.90
21261;DHT22;10788;47.930;9.766;2022-12-07T01:43:31;2.20;99.90
21261;DHT22;10788;47.930;9.766;2022-12-07T01:45:57;2.20;99.90
21261;DHT22;10788;47.930;9.766;2022-12-07T01:48:29;2.20;99.90
21261;DHT22;10788;47.930;9.766;2022-12-07T01:50:57;2.20;99.90
21261;DHT22;10788;47.930;9.766;2022-12-07T01:53:26;2.20;99.90
21261;DHT22;10788;47.930;9.766;2022-12-07T01:55:53;2.20;99.90
21261;DHT22;10788;47.930;9.766;2022-12-07T01:58:20;2.30;99.90
21261;DHT22;10788;47.930;9.766;2022-12-07T02:00:46;2.20;99.90
21261;DHT22;10788;47.930;9.766;2022-12-07T02:03:30;2.10;99.90
21261;DHT22;10788;47.930;9.766;2022-12-07T02:05:58;2.10;99.90
21261;DHT22;10788;47.930;9.766;2022-12-07T02:08:25;2.10;99.90
21261;DHT22;10788;47.930;9.766;2022-12-07T02:10:51;2.20;99.90
21261;DHT22;10788;47.930;9.766;2022-12-07T02:13:24;2.30;99.90
21261;DHT22;10788;47.930;9.766;2022-12-07T02:35:20;2.20;99.90
21261;DHT22;10788;47.930;9.766;2022-12-07T02:37:53;2.20;99.90
21261;DHT22;10788;47.930;9.766;2022-12-07T02:40:46;2.20;99.90
21261;DHT22;10788;47.930;9.766;2022-12-07T02:43:18;2.20;99.90
21261;DHT22;10788;47.930;9.766;2022-12-07T02:45:46;2.20;99.90
21261;DHT22;10788;47.930;9.766;2022-12-07T02:48:14;2.20;99.90
21261;DHT22;10788;47.930;9.766;2022-12-07T02:50:51;2.20;99.90
21261;DHT22;10788;47.930;9.766;2022-12-07T02:53:39;2.20;99.90
21261;DHT22;10788;47.930;9.766;2022-12-07T03:09:43;2.20;99.90
21261;DHT22;10788;47.930;9.766;2022-12-07T03:12:14;2.20;99.90
21261;DHT22;10788;47.930;9.766;2022-12-07T03:14:54;2.20;99.90
21261;DHT22;10788;47.930;9.766;2022-12-07T03:17:27;2.20;99.90
21261;DHT22;10788;47.930;9.766;2022-12-07T03:20:03;2.20;99.90
21261;DHT22;10788;47.930;9.766;2022-12-07T03:22:31;2.20;99.90
21261;DHT22;10788;47.930;9.766;2022-12-07T03:25:00;2.20;99.90
21261;DHT22;10788;47.930;9.766;2022-12-07T03:28:05;2.20;99.90
21261;DHT22;10788;47.930;9.766;2022-12-07T03:30:30;2.20;99.90
21261;DHT22;10788;47.930;9.766;2022-12-07T03:33:09;2.20;99.90
21261;DHT22;10788;47.930;9.766;2022-12-07T03:35:40;2.20;99.90
21261;DHT22;10788;47.930;9.766;2022-12-07T03:38:23;2.20;99.90
21261;DHT22;10788;47.930;9.766;2022-12-07T03:41:00;2.20;99.90
21261;DHT22;10788;47.930;9.766;2022-12-07T03:43:30;2.20;99.90
21261;DHT22;10788;47.930;9.766;2022-12-07T03:49:22;2.20;99.90
21261;DHT22;10788;47.930;9.766;2022-12-07T03:51:54;2.20;99.90
21261;DHT22;10788;47.930;9.766;2022-12-07T03:54:34;2.10;99.90
21261;DHT22;10788;47.930;9.766;2022-12-07T03:57:02;2.10;99.90
21261;DHT22;10788;47.930;9.766;2022-12-07T03:59:30;2.10;99.90
21261;DHT22;10788;47.930;9.766;2022-12-07T04:02:01;2.10;99.90
21261;DHT22;10788;47.930;9.766;2022-12-07T04:04:27;2.10;99.90
21261;DHT22;10788;47.930;9.766;2022-12-07T04:06:53;2.10;99.90
21261;DHT22;10788;47.930;9.766;2022-12-07T04:09:19;2.10;99.90
21261;DHT22;10788;47.930;9.766;2022-12-07T04:11:44;2.10;99.90
21261;DHT22;10788;47.930;9.766;2022-12-07T04:14:10;2.10;99.90
21261;DHT22;10788;47.930;9.766;2022-12-07T04:16:50;2.10;99.90
21261;DHT22;10788;47.930;9.766;2022-12-07T04:19:18;2.00;99.90
21261;DHT22;10788;47.930;9.766;2022-12-07T04:21:44;2.00;99.90
21261;DHT22;10788;47.930;9.766;2022-12-07T04:24:11;2.00;99.90
21261;DHT22;10788;47.930;9.766;2022-12-07T04:26:37;2.00;99.90
21261;DHT22;10788;47.930;9.766;2022-12-07T04:29:03;2.00;99.90
21261;DHT22;10788;47.930;9.766;2022-12-07T04:31:28;2.00;99.90
21261;DHT22;10788;47.930;9.766;2022-12-07T04:33:54;2.00;99.90
21261;DHT22;10788;47.930;9.766;2022-12-07T04:36:20;2.00;99.90
21261;DHT22;10788;47.930;9.766;2022-12-07T04:38:46;2.00;99.90
21261;DHT22;10788;47.930;9.766;2022-12-07T04:41:12;1.90;99.90
21261;DHT22;10788;47.930;9.766;2022-12-07T04:43:37;1.90;99.90
21261;DHT22;10788;47.930;9.766;2022-12-07T04:46:03;1.90;99.90
21261;DHT22;10788;47.930;9.766;2022-12-07T04:48:29;1.90;99.90
21261;DHT22;10788;47.930;9.766;2022-12-07T04:50:55;1.80;99.90
21261;DHT22;10788;47.930;9.766;2022-12-07T04:53:21;1.80;99.90
21261;DHT22;10788;47.930;9.766;2022-12-07T04:55:47;1.70;99.90
21261;DHT22;10788;47.930;9.766;2022-12-07T04:58:13;1.70;99.90
21261;DHT22;10788;47.930;9.766;2022-12-07T05:00:39;1.70;99.90
21261;DHT22;10788;47.930;9.766;2022-12-07T05:03:05;1.70;99.90
21261;DHT22;10788;47.930;9.766;2022-12-07T05:05:31;1.70;99.90
21261;DHT22;10788;47.930;9.766;2022-12-07T05:07:57;1.60;99.90
21261;DHT22;10788;47.930;9.766;2022-12-07T05:10:22;1.60;99.90
21261;DHT22;10788;47.930;9.766;2022-12-07T05:12:48;1.50;99.90
21261;DHT22;10788;47.930;9.766;2022-12-07T05:15:15;1.50;99.90
21261;DHT22;10788;47.930;9.766;2022-12-07T05:17:40;1.50;99.90
21261;DHT22;10788;47.930;9.766;2022-12-07T05:20:07;1.50;99.90
21261;DHT22;10788;47.930;9.766;2022-12-07T05:22:33;1.50;99.90
21261;DHT22;10788;47.930;9.766;2022-12-07T05:24:59;1.50;99.90
21261;DHT22;10788;47.930;9.766;2022-12-07T05:27:24;1.50;99.90
21261;DHT22;10788;47.930;9.766;2022-12-07T05:29:51;1.50;99.90
21261;DHT22;10788;47.930;9.766;2022-12-07T05:32:17;1.50;99.90
21261;DHT22;10788;47.930;9.766;2022-12-07T05:34:43;1.40;99.90
21261;DHT22;10788;47.930;9.766;2022-12-07T05:37:08;1.40;99.90
21261;DHT22;10788;47.930;9.766;2022-12-07T05:39:34;1.50;99.90
21261;DHT22;10788;47.930;9.766;2022-12-07T05:41:59;1.40;99.90
21261;DHT22;10788;47.930;9.766;2022-12-07T05:44:40;1.40;99.90
21261;DHT22;10788;47.930;9.766;2022-12-07T05:47:06;1.40;99.90
21261;DHT22;10788;47.930;9.766;2022-12-07T05:49:32;1.40;99.90
21261;DHT22;10788;47.930;9.766;2022-12-07T05:51:58;1.40;99.90
21261;DHT22;10788;47.930;9.766;2022-12-07T05:54:24;1.50;99.90
21261;DHT22;10788;47.930;9.766;2022-12-07T05:56:49;1.50;99.90
21261;DHT22;10788;47.930;9.766;2022-12-07T05:59:15;1.50;99.90
21261;DHT22;10788;47.930;9.766;2022-12-07T06:02:13;1.50;99.90
21261;DHT22;10788;47.930;9.766;2022-12-07T06:04:41;1.50;99.90
21261;DHT22;10788;47.930;9.766;2022-12-07T06:07:08;1.50;99.90
21261;DHT22;10788;47.930;9.766;2022-12-07T06:09:34;1.50;99.90
21261;DHT22;10788;47.930;9.766;2022-12-07T06:12:01;1.50;99.90
21261;DHT22;10788;47.930;9.766;2022-12-07T06:14:45;1.50;99.90
21261;DHT22;10788;47.930;9.766;2022-12-07T06:17:11;1.50;99.90
21261;DHT22;10788;47.930;9.766;2022-12-07T06:19:39;1.40;99.90
21261;DHT22;10788;47.930;9.766;2022-12-07T06:22:05;1.40;99.90
21261;DHT22;10788;47.930;9.766;2022-12-07T06:24:32;1.40;99.90
21261;DHT22;10788;47.930;9.766;2022-12-07T06:26:58;1.50;99.90
21261;DHT22;10788;47.930;9.766;2022-12-07T06:29:24;1.50;99.90
21261;DHT22;10788;47.930;9.766;2022-12-07T06:31:49;1.50;99.90
21261;DHT22;10788;47.930;9.766;2022-12-07T06:34:17;1.50;99.90
21261;DHT22;10788;47.930;9.766;2022-12-07T06:36:43;1.40;99.90
21261;DHT22;10788;47.930;9.766;2022-12-07T06:39:09;1.40;99.90
21261;DHT22;10788;47.930;9.766;2022-12-07T06:41:37;1.40;99.90
21261;DHT22;10788;47.930;9.766;2022-12-07T06:44:04;1.40;99.90
21261;DHT22;10788;47.930;9.766;2022-12-07T06:46:30;1.40;99.90
21261;DHT22;10788;47.930;9.766;2022-12-07T06:48:55;1.40;99.90
21261;DHT22;10788;47.930;9.766;2022-12-07T06:51:22;1.40;99.90
21261;DHT22;10788;47.930;9.766;2022-12-07T06:53:47;1.40;99.90
21261;DHT22;10788;47.930;9.766;2022-12-07T06:56:13;1.40;99.90
21261;DHT22;10788;47.930;9.766;2022-12-07T06:58:39;1.40;99.90
21261;DHT22;10788;47.930;9.766;2022-12-07T07:01:13;1.50;99.90
21261;DHT22;10788;47.930;9.766;2022-12-07T07:03:39;1.50;99.90
21261;DHT22;10788;47.930;9.766;2022-12-07T07:06:06;1.50;99.90
21261;DHT22;10788;47.930;9.766;2022-12-07T07:08:33;1.50;99.90
21261;DHT22;10788;47.930;9.766;2022-12-07T07:10:58;1.50;99.90
21261;DHT22;10788;47.930;9.766;2022-12-07T07:13:24;1.50;99.90
21261;DHT22;10788;47.930;9.766;2022-12-07T07:15:50;1.50;99.90
21261;DHT22;10788;47.930;9.766;2022-12-07T07:18:15;1.50;99.90
21261;DHT22;10788;47.930;9.766;2022-12-07T07:20:41;1.50;99.90
21261;DHT22;10788;47.930;9.766;2022-12-07T07:23:07;1.50;99.90
21261;DHT22;10788;47.930;9.766;2022-12-07T07:25:32;1.50;99.90
21261;DHT22;10788;47.930;9.766;2022-12-07T07:27:58;1.50;99.90
21261;DHT22;10788;47.930;9.766;2022-12-07T07:30:24;1.50;99.90
21261;DHT22;10788;47.930;9.766;2022-12-07T07:32:50;1.50;99.90
21261;DHT22;10788;47.930;9.766;2022-12-07T07:35:16;1.50;99.90
21261;DHT22;10788;47.930;9.766;2022-12-07T07:37:41;1.50;99.90
21261;DHT22;10788;47.930;9.766;2022-12-07T07:40:08;1.50;99.90
21261;DHT22;10788;47.930;9.766;2022-12-07T07:42:34;1.50;99.90
21261;DHT22;10788;47.930;9.766;2022-12-07T07:45:00;1.50;99.90
21261;DHT22;10788;47.930;9.766;2022-12-07T07:47:25;1.60;99.90
21261;DHT22;10788;47.930;9.766;2022-12-07T07:49:51;1.60;99.90
21261;DHT22;10788;47.930;9.766;2022-12-07T07:52:16;1.60;99.90
21261;DHT22;10788;47.930;9.766;2022-12-07T07:54:42;1.50;99.90
21261;DHT22;10788;47.930;9.766;2022-12-07T07:57:08;1.50;99.90
21261;DHT22;10788;47.930;9.766;2022-12-07T07:59:33;1.50;99.90
21261;DHT22;10788;47.930;9.766;2022-12-07T08:01:59;1.50;99.90
21261;DHT22;10788;47.930;9.766;2022-12-07T08:04:24;1.50;99.90
21261;DHT22;10788;47.930;9.766;2022-12-07T08:06:50;1.50;99.90
21261;DHT22;10788;47.930;9.766;2022-12-07T08:09:15;1.50;99.90
21261;DHT22;10788;47.930;9.766;2022-12-07T08:11:41;1.50;99.90
21261;DHT22;10788;47.930;9.766;2022-12-07T08:14:07;1.60;99.90
21261;DHT22;10788;47.930;9.766;2022-12-07T08:16:32;1.60;99.90
21261;DHT22;10788;47.930;9.766;2022-12-07T08:18:58;1.70;99.90
21261;DHT22;10788;47.930;9.766;2022-12-07T08:21:23;1.70;99.90
21261;DHT22;10788;47.930;9.766;2022-12-07T08:23:49;1.70;99.90
21261;DHT22;10788;47.930;9.766;2022-12-07T08:26:16;1.70;99.90
21261;DHT22;10788;47.930;9.766;2022-12-07T08:28:42;1.70;99.90
21261;DHT22;10788;47.930;9.766;2022-12-07T08:31:14;1.70;99.90
21261;DHT22;10788;47.930;9.766;2022-12-07T08:33:40;1.70;99.90
21261;DHT22;10788;47.930;9.766;2022-12-07T08:36:09;1.70;99.90
21261;DHT22;10788;47.930;9.766;2022-12-07T08:38:36;1.70;99.90
21261;DHT22;10788;47.930;9.766;2022-12-07T08:41:02;1.70;99.90
21261;DHT22;10788;47.930;9.766;2022-12-07T08:43:27;1.80;99.90
21261;DHT22;10788;47.930;9.766;2022-12-07T08:46:08;1.80;99.90
21261;DHT22;10788;47.930;9.766;2022-12-07T08:48:38;1.80;99.90
21261;DHT22;10788;47.930;9.766;2022-12-07T08:51:05;1.80;99.90
21261;DHT22;10788;47.930;9.766;2022-12-07T08:53:31;1.80;99.90
21261;DHT22;10788;47.930;9.766;2022-12-07T08:55:57;1.80;99.90
21261;DHT22;10788;47.930;9.766;2022-12-07T08:58:24;1.80;99.90
21261;DHT22;10788;47.930;9.766;2022-12-07T09:00:50;1.80;99.90
21261;DHT22;10788;47.930;9.766;2022-12-07T09:03:15;1.80;99.90
21261;DHT22;10788;47.930;9.766;2022-12-07T09:05:41;1.80;99.90
21261;DHT22;10788;47.930;9.766;2022-12-07T09:08:07;1.90;99.90
21261;DHT22;10788;47.930;9.766;2022-12-07T09:10:33;1.90;99.90
21261;DHT22;10788;47.930;9.766;2022-12-07T09:12:59;1.90;99.90
21261;DHT22;10788;47.930;9.766;2022-12-07T09:15:28;1.90;99.90
21261;DHT22;10788;47.930;9.766;2022-12-07T09:17:54;2.00;99.90
21261;DHT22;10788;47.930;9.766;2022-12-07T09:20:20;2.00;99.90
21261;DHT22;10788;47.930;9.766;2022-12-07T09:22:46;2.10;99.90
21261;DHT22;10788;47.930;9.766;2022-12-07T09:25:12;2.10;99.90
21261;DHT22;10788;47.930;9.766;2022-12-07T09:27:37;2.10;99.90
21261;DHT22;10788;47.930;9.766;2022-12-07T09:30:04;2.20;99.90
21261;DHT22;10788;47.930;9.766;2022-12-07T09:32:30;2.20;99.90
21261;DHT22;10788;47.930;9.766;2022-12-07T09:34:56;2.20;99.90
21261;DHT22;10788;47.930;9.766;2022-12-07T09:37:22;2.30;99.90
21261;DHT22;10788;47.930;9.766;2022-12-07T09:39:47;2.30;99.90
21261;DHT22;10788;47.930;9.766;2022-12-07T09:42:41;2.40;99.90
21261;DHT22;10788;47.930;9.766;2022-12-07T09:45:27;2.30;99.90
21261;DHT22;10788;47.930;9.766;2022-12-07T09:47:57;2.30;99.90
21261;DHT22;10788;47.930;9.766;2022-12-07T09:50:26;2.30;99.90
21261;DHT22;10788;47.930;9.766;2022-12-07T09:52:54;2.40;99.90
21261;DHT22;10788;47.930;9.766;2022-12-07T09:55:28;2.50;99.90
21261;DHT22;10788;47.930;9.766;2022-12-07T09:57:55;2.50;99.90
21261;DHT22;10788;47.930;9.766;2022-12-07T10:00:22;2.50;99.90
21261;DHT22;10788;47.930;9.766;2022-12-07T10:02:59;2.50;99.90
21261;DHT22;10788;47.930;9.766;2022-12-07T10:05:30;2.50;99.90
21261;DHT22;10788;47.930;9.766;2022-12-07T10:07:56;2.60;99.90
21261;DHT22;10788;47.930;9.766;2022-12-07T10:10:30;2.60;99.90
21261;DHT22;10788;47.930;9.766;2022-12-07T10:13:02;2.70;99.90
21261;DHT22;10788;47.930;9.766;2022-12-07T10:21:00;2.70;99.90
21261;DHT22;10788;47.930;9.766;2022-12-07T10:23:26;2.70;99.90
21261;DHT22;10788;47.930;9.766;2022-12-07T10:25:51;2.70;99.90
21261;DHT22;10788;47.930;9.766;2022-12-07T10:28:20;2.60;99.90
21261;DHT22;10788;47.930;9.766;2022-12-07T10:33:53;2.70;99.90
21261;DHT22;10788;47.930;9.766;2022-12-07T10:36:45;2.70;99.90
21261;DHT22;10788;47.930;9.766;2022-12-07T10:39:13;2.70;99.90
21261;DHT22;10788;47.930;9.766;2022-12-07T10:42:02;2.80;99.90
21261;DHT22;10788;47.930;9.766;2022-12-07T10:44:30;2.70;99.90
21261;DHT22;10788;47.930;9.766;2022-12-07T10:47:08;2.70;99.90
21261;DHT22;10788;47.930;9.766;2022-12-07T11:06:47;3.00;99.90
21261;DHT22;10788;47.930;9.766;2022-12-07T11:15:01;3.00;99.90
21261;DHT22;10788;47.930;9.766;2022-12-07T11:26:04;3.10;99.90
21261;DHT22;10788;47.930;9.766;2022-12-07T11:36:46;3.10;99.90
21261;DHT22;10788;47.930;9.766;2022-12-07T11:41:45;3.10;99.90
21261;DHT22;10788;47.930;9.766;2022-12-07T11:47:09;3.10;99.90
21261;DHT22;10788;47.930;9.766;2022-12-07T11:49:45;3.20;99.90
21261;DHT22;10788;47.930;9.766;2022-12-07T11:52:22;3.10;99.90
21261;DHT22;10788;47.930;9.766;2022-12-07T11:54:52;3.20;99.90
21261;DHT22;10788;47.930;9.766;2022-12-07T11:57:25;3.20;99.90
21261;DHT22;10788;47.930;9.766;2022-12-07T11:59:59;3.40;99.90
21261;DHT22;10788;47.930;9.766;2022-12-07T12:05:20;3.50;99.90
21261;DHT22;10788;47.930;9.766;2022-12-07T12:08:32;3.30;99.90
21261;DHT22;10788;47.930;9.766;2022-12-07T12:18:48;3.40;99.90
21261;DHT22;10788;47.930;9.766;2022-12-07T12:21:22;3.40;99.90
21261;DHT22;10788;47.930;9.766;2022-12-07T12:26:28;3.40;99.90
21261;DHT22;10788;47.930;9.766;2022-12-07T12:33:59;3.30;99.90
21261;DHT22;10788;47.930;9.766;2022-12-07T12:39:09;3.40;99.90
21261;DHT22;10788;47.930;9.766;2022-12-07T12:51:50;3.40;99.90
21261;DHT22;10788;47.930;9.766;2022-12-07T12:54:30;3.40;99.90
21261;DHT22;10788;47.930;9.766;2022-12-07T12:59:41;3.30;99.90
21261;DHT22;10788;47.930;9.766;2022-12-07T13:04:54;3.40;99.90
21261;DHT22;10788;47.930;9.766;2022-12-07T13:10:36;3.40;99.90
21261;DHT22;10788;47.930;9.766;2022-12-07T13:31:41;3.30;99.90
21261;DHT22;10788;47.930;9.766;2022-12-07T13:37:25;3.30;99.90
21261;DHT22;10788;47.930;9.766;2022-12-07T13:39:59;3.40;99.90
21261;DHT22;10788;47.930;9.766;2022-12-07T13:42:31;3.40;99.90
21261;DHT22;10788;47.930;9.766;2022-12-07T13:44:59;3.40;99.90
21261;DHT22;10788;47.930;9.766;2022-12-07T13:50:22;3.40;99.90
21261;DHT22;10788;47.930;9.766;2022-12-07T13:52:48;3.40;99.90
21261;DHT22;10788;47.930;9.766;2022-12-07T13:55:16;3.40;99.90
21261;DHT22;10788;47.930;9.766;2022-12-07T13:57:50;3.40;99.90
21261;DHT22;10788;47.930;9.766;2022-12-07T14:00:25;3.40;99.90
21261;DHT22;10788;47.930;9.766;2022-12-07T14:03:04;3.40;99.90
21261;DHT22;10788;47.930;9.766;2022-12-07T14:05:34;3.30;99.90
21261;DHT22;10788;47.930;9.766;2022-12-07T14:10:38;3.30;99.90
21261;DHT22;10788;47.930;9.766;2022-12-07T14:13:29;3.30;99.90
21261;DHT22;10788;47.930;9.766;2022-12-07T14:15:56;3.20;99.90
21261;DHT22;10788;47.930;9.766;2022-12-07T14:21:18;3.20;99.90
21261;DHT22;10788;47.930;9.766;2022-12-07T14:23:45;3.10;99.90
21261;DHT22;10788;47.930;9.766;2022-12-07T14:26:18;3.10;99.90
21261;DHT22;10788;47.930;9.766;2022-12-07T14:28:44;3.00;99.90
21261;DHT22;10788;47.930;9.766;2022-12-07T14:31:17;2.90;99.90
21261;DHT22;10788;47.930;9.766;2022-12-07T14:33:43;3.00;99.90
21261;DHT22;10788;47.930;9.766;2022-12-07T14:36:10;3.00;99.90
21261;DHT22;10788;47.930;9.766;2022-12-07T14:38:36;3.00;99.90
21261;DHT22;10788;47.930;9.766;2022-12-07T14:41:04;3.00;99.90
21261;DHT22;10788;47.930;9.766;2022-12-07T14:43:49;2.90;99.90
21261;DHT22;10788;47.930;9.766;2022-12-07T14:46:14;2.90;99.90
21261;DHT22;10788;47.930;9.766;2022-12-07T14:48:40;2.90;99.90
21261;DHT22;10788;47.930;9.766;2022-12-07T14:51:08;2.90;99.90
21261;DHT22;10788;47.930;9.766;2022-12-07T14:53:39;2.90;99.90
21261;DHT22;10788;47.930;9.766;2022-12-07T14:56:06;3.00;99.90
21261;DHT22;10788;47.930;9.766;2022-12-07T14:58:31;3.00;99.90
21261;DHT22;10788;47.930;9.766;2022-12-07T15:00:58;3.00;99.90
21261;DHT22;10788;47.930;9.766;2022-12-07T15:03:24;3.10;99.90
21261;DHT22;10788;47.930;9.766;2022-12-07T15:05:49;3.10;99.90
21261;DHT22;10788;47.930;9.766;2022-12-07T15:08:15;3.00;99.90
21261;DHT22;10788;47.930;9.766;2022-12-07T15:10:41;3.00;99.90
21261;DHT22;10788;47.930;9.766;2022-12-07T15:13:07;2.90;99.90
21261;DHT22;10788;47.930;9.766;2022-12-07T15:15:53;2.90;99.90
21261;DHT22;10788;47.930;9.766;2022-12-07T15:18:20;2.90;99.90
21261;DHT22;10788;47.930;9.766;2022-12-07T15:20:46;2.80;99.90
21261;DHT22;10788;47.930;9.766;2022-12-07T15:23:12;2.80;99.90
21261;DHT22;10788;47.930;9.766;2022-12-07T15:25:45;2.80;99.90
21261;DHT22;10788;47.930;9.766;2022-12-07T15:28:12;2.80;99.90
21261;DHT22;10788;47.930;9.766;2022-12-07T15:30:38;2.80;99.90
21261;DHT22;10788;47.930;9.766;2022-12-07T15:33:04;2.80;99.90
21261;DHT22;10788;47.930;9.766;2022-12-07T15:35:29;2.90;99.90
21261;DHT22;10788;47.930;9.766;2022-12-07T15:37:55;2.90;99.90
21261;DHT22;10788;47.930;9.766;2022-12-07T15:40:21;2.90;99.90
21261;DHT22;10788;47.930;9.766;2022-12-07T15:42:46;2.80;99.90
21261;DHT22;10788;47.930;9.766;2022-12-07T15:45:12;2.80;99.90
21261;DHT22;10788;47.930;9.766;2022-12-07T15:47:43;2.80;99.90
21261;DHT22;10788;47.930;9.766;2022-12-07T15:50:14;2.80;99.90
21261;DHT22;10788;47.930;9.766;2022-12-07T15:52:40;2.70;99.90
21261;DHT22;10788;47.930;9.766;2022-12-07T15:55:06;2.70;99.90
21261;DHT22;10788;47.930;9.766;2022-12-07T15:57:34;2.70;99.90
21261;DHT22;10788;47.930;9.766;2022-12-07T16:00:00;2.70;99.90
21261;DHT22;10788;47.930;9.766;2022-12-07T16:02:25;2.60;99.90
21261;DHT22;10788;47.930;9.766;2022-12-07T16:04:52;2.60;99.90
21261;DHT22;10788;47.930;9.766;2022-12-07T16:07:18;2.60;99.90
21261;DHT22;10788;47.930;9.766;2022-12-07T16:09:45;2.60;99.90
21261;DHT22;10788;47.930;9.766;2022-12-07T16:12:13;2.50;99.90
21261;DHT22;10788;47.930;9.766;2022-12-07T16:14:40;2.40;99.90
21261;DHT22;10788;47.930;9.766;2022-12-07T16:17:06;2.30;99.90
21261;DHT22;10788;47.930;9.766;2022-12-07T16:19:33;2.30;99.90
21261;DHT22;10788;47.930;9.766;2022-12-07T16:21:59;2.30;99.90
21261;DHT22;10788;47.930;9.766;2022-12-07T16:24:26;2.30;99.90
21261;DHT22;10788;47.930;9.766;2022-12-07T16:26:52;2.30;99.90
21261;DHT22;10788;47.930;9.766;2022-12-07T16:29:19;2.30;99.90
21261;DHT22;10788;47.930;9.766;2022-12-07T16:31:45;2.30;99.90
21261;DHT22;10788;47.930;9.766;2022-12-07T16:34:11;2.30;99.90
21261;DHT22;10788;47.930;9.766;2022-12-07T16:36:36;2.30;99.90
21261;DHT22;10788;47.930;9.766;2022-12-07T16:39:04;2.30;99.90
21261;DHT22;10788;47.930;9.766;2022-12-07T16:41:30;2.40;99.90
21261;DHT22;10788;47.930;9.766;2022-12-07T16:43:56;2.40;99.90
21261;DHT22;10788;47.930;9.766;2022-12-07T16:46:21;2.30;99.90
21261;DHT22;10788;47.930;9.766;2022-12-07T16:48:47;2.40;99.90
21261;DHT22;10788;47.930;9.766;2022-12-07T16:51:13;2.40;99.90
21261;DHT22;10788;47.930;9.766;2022-12-07T16:53:41;2.40;99.90
21261;DHT22;10788;47.930;9.766;2022-12-07T16:56:15;2.40;99.90
21261;DHT22;10788;47.930;9.766;2022-12-07T16:58:42;2.40;99.90
21261;DHT22;10788;47.930;9.766;2022-12-07T17:01:13;2.40;99.90
21261;DHT22;10788;47.930;9.766;2022-12-07T17:03:39;2.50;99.90
21261;DHT22;10788;47.930;9.766;2022-12-07T17:06:18;2.50;99.90
21261;DHT22;10788;47.930;9.766;2022-12-07T17:08:45;2.50;99.90
21261;DHT22;10788;47.930;9.766;2022-12-07T17:11:18;2.40;99.90
21261;DHT22;10788;47.930;9.766;2022-12-07T17:13:44;2.40;99.90
21261;DHT22;10788;47.930;9.766;2022-12-07T17:16:28;2.30;99.90
21261;DHT22;10788;47.930;9.766;2022-12-07T17:18:54;2.20;99.90
21261;DHT22;10788;47.930;9.766;2022-12-07T17:21:20;2.20;99.90
21261;DHT22;10788;47.930;9.766;2022-12-07T17:23:46;2.10;99.90
21261;DHT22;10788;47.930;9.766;2022-12-07T17:26:15;2.00;99.90
21261;DHT22;10788;47.930;9.766;2022-12-07T17:28:41;1.80;99.90
21261;DHT22;10788;47.930;9.766;2022-12-07T17:31:09;1.80;99.90
21261;DHT22;10788;47.930;9.766;2022-12-07T17:33:35;1.70;99.90
21261;DHT22;10788;47.930;9.766;2022-12-07T17:36:01;1.70;99.90
21261;DHT22;10788;47.930;9.766;2022-12-07T17:38:28;1.60;99.90
21261;DHT22;10788;47.930;9.766;2022-12-07T17:40:53;1.60;99.90
21261;DHT22;10788;47.930;9.766;2022-12-07T17:43:19;1.50;99.90
21261;DHT22;10788;47.930;9.766;2022-12-07T17:45:45;1.50;99.90
21261;DHT22;10788;47.930;9.766;2022-12-07T17:48:11;1.50;99.90
21261;DHT22;10788;47.930;9.766;2022-12-07T17:50:38;1.50;99.90
21261;DHT22;10788;47.930;9.766;2022-12-07T17:53:23;1.50;99.90
21261;DHT22;10788;47.930;9.766;2022-12-07T17:55:52;1.40;99.90
21261;DHT22;10788;47.930;9.766;2022-12-07T17:58:17;1.40;99.90
21261;DHT22;10788;47.930;9.766;2022-12-07T18:00:43;1.50;99.90
21261;DHT22;10788;47.930;9.766;2022-12-07T18:03:09;1.50;99.90
21261;DHT22;10788;47.930;9.766;2022-12-07T18:05:36;1.50;99.90
21261;DHT22;10788;47.930;9.766;2022-12-07T18:08:03;1.50;99.90
21261;DHT22;10788;47.930;9.766;2022-12-07T18:10:28;1.50;99.90
21261;DHT22;10788;47.930;9.766;2022-12-07T18:12:54;1.50;99.90
21261;DHT22;10788;47.930;9.766;2022-12-07T18:15:40;1.50;99.90
21261;DHT22;10788;47.930;9.766;2022-12-07T18:18:06;1.40;99.90
21261;DHT22;10788;47.930;9.766;2022-12-07T18:20:31;1.40;99.90
21261;DHT22;10788;47.930;9.766;2022-12-07T18:22:57;1.40;99.90
21261;DHT22;10788;47.930;9.766;2022-12-07T18:25:22;1.30;99.90
21261;DHT22;10788;47.930;9.766;2022-12-07T18:27:48;1.30;99.90
21261;DHT22;10788;47.930;9.766;2022-12-07T18:30:14;1.30;99.90
21261;DHT22;10788;47.930;9.766;2022-12-07T18:32:39;1.30;99.90